sensor_id;sensor_type;location;lat;lon;timestamp;pressure;altitude;pressure_sealevel;temperature;humidity
19890;BME280;10107;51.198;6.824;2023-02-11T00:03:04;-21440.34;;;4.55;100.00
19890;BME280;10107;51.198;6.824;2023-02-11T00:07:06;-21439.53;;;4.52;100.00
19890;BME280;10107;51.198;6.824;2023-02-11T00:11:11;-21439.25;;;4.51;100.00
19890;BME280;10107;51.198;6.824;2023-02-11T00:15:13;-21437.94;;;4.46;100.00
19890;BME280;10107;51.198;6.824;2023-02-11T00:19:16;-21439.53;;;4.52;100.00
19890;BME280;10107;51.198;6.824;2023-02-11T00:23:19;-21441.28;;;4.59;100.00
19890;BME280;10107;51.198;6.824;2023-02-11T00:27:20;-21440.06;;;4.54;100.00
19890;BME280;10107;51.198;6.824;2023-02-11T00:31:23;-21439.94;;;4.54;100.00
19890;BME280;10107;51.198;6.824;2023-02-11T00:35:26;-21440.19;;;4.55;100.00
19890;BME280;10107;51.198;6.824;2023-02-11T00:39:28;-21439.00;;;4.50;100.00
19890;BME280;10107;51.198;6.824;2023-02-11T00:43:30;-21439.25;;;4.51;100.00
19890;BME280;10107;51.198;6.824;2023-02-11T00:47:32;-21439.00;;;4.50;100.00
19890;BME280;10107;51.198;6.824;2023-02-11T00:51:35;-21436.59;;;4.41;100.00
19890;BME280;10107;51.198;6.824;2023-02-11T00:55:37;-21435.91;;;4.39;100.00
19890;BME280;10107;51.198;6.824;2023-02-11T00:59:39;-21435.91;;;4.39;100.00
19890;BME280;10107;51.198;6.824;2023-02-11T01:03:41;-21436.84;;;4.42;100.00
19890;BME280;10107;51.198;6.824;2023-02-11T01:07:44;-21437.00;;;4.43;100.00
19890;BME280;10107;51.198;6.824;2023-02-11T01:11:46;-21439.13;;;4.51;100.00
19890;BME280;10107;51.198;6.824;2023-02-11T01:15:48;-21439.94;;;4.54;100.00
19890;BME280;10107;51.198;6.824;2023-02-11T01:19:51;-21438.31;;;4.48;100.00
19890;BME280;10107;51.198;6.824;2023-02-11T01:29:16;-21436.06;;;4.39;100.00
19890;BME280;10107;51.198;6.824;2023-02-11T01:33:18;-21435.00;;;4.35;100.00
19890;BME280;10107;51.198;6.824;2023-02-11T01:37:20;-21434.72;;;4.34;100.00
19890;BME280;10107;51.198;6.824;2023-02-11T01:41:22;-21434.19;;;4.32;100.00
19890;BME280;10107;51.198;6.824;2023-02-11T01:45:58;-21433.50;;;4.29;100.00
19890;BME280;10107;51.198;6.824;2023-02-11T01:50:00;-21433.66;;;4.30;100.00
19890;BME280;10107;51.198;6.824;2023-02-11T01:54:05;-21434.84;;;4.34;100.00
19890;BME280;10107;51.198;6.824;2023-02-11T01:58:26;-21437.00;;;4.43;100.00
19890;BME280;10107;51.198;6.824;2023-02-11T02:02:35;-21439.41;;;4.52;100.00
19890;BME280;10107;51.198;6.824;2023-02-11T02:06:43;-21440.59;;;4.56;100.00
19890;BME280;10107;51.198;6.824;2023-02-11T02:10:51;-21441.13;;;4.59;100.00
19890;BME280;10107;51.198;6.824;2023-02-11T02:15:17;-21442.34;;;4.63;100.00
19890;BME280;10107;51.198;6.824;2023-02-11T02:19:40;-21443.53;;;4.68;100.00
19890;BME280;10107;51.198;6.824;2023-02-11T02:24:02;-21443.81;;;4.69;100.00
19890;BME280;10107;51.198;6.824;2023-02-11T02:28:19;-21444.22;;;4.70;100.00
19890;BME280;10107;51.198;6.824;2023-02-11T02:32:37;-21444.88;;;4.73;100.00
19890;BME280;10107;51.198;6.824;2023-02-11T02:36:44;-21444.88;;;4.73;100.00
19890;BME280;10107;51.198;6.824;2023-02-11T02:40:50;-21444.59;;;4.72;100.00
19890;BME280;10107;51.198;6.824;2023-02-11T02:44:55;-21445.28;;;4.74;100.00
19890;BME280;10107;51.198;6.824;2023-02-11T02:48:59;-21445.41;;;4.75;100.00
19890;BME280;10107;51.198;6.824;2023-02-11T02:53:07;-21445.41;;;4.75;100.00
19890;BME280;10107;51.198;6.824;2023-02-11T02:57:21;-21445.69;;;4.76;100.00
19890;BME280;10107;51.198;6.824;2023-02-11T03:01:34;-21446.06;;;4.78;100.00
19890;BME280;10107;51.198;6.824;2023-02-11T03:05:49;-21446.88;;;4.81;100.00
19890;BME280;10107;51.198;6.824;2023-02-11T03:09:57;-21448.34;;;4.86;100.00
19890;BME280;10107;51.198;6.824;2023-02-11T03:14:02;-21448.88;;;4.88;100.00
19890;BME280;10107;51.198;6.824;2023-02-11T03:18:07;-21449.16;;;4.89;100.00
19890;BME280;10107;51.198;6.824;2023-02-11T03:22:16;-21449.56;;;4.91;100.00
19890;BME280;10107;51.198;6.824;2023-02-11T03:26:22;-21450.50;;;4.94;100.00
19890;BME280;10107;51.198;6.824;2023-02-11T03:30:29;-21450.09;;;4.93;100.00
19890;BME280;10107;51.198;6.824;2023-02-11T03:34:38;-21450.88;;;4.96;100.00
19890;BME280;10107;51.198;6.824;2023-02-11T03:38:46;-21451.03;;;4.96;100.00
19890;BME280;10107;51.198;6.824;2023-02-11T03:42:52;-21451.44;;;4.98;100.00
19890;BME280;10107;51.198;6.824;2023-02-11T03:46:55;-21451.16;;;4.97;100.00
19890;BME280;10107;51.198;6.824;2023-02-11T03:50:58;-21451.28;;;4.97;100.00
19890;BME280;10107;51.198;6.824;2023-02-11T03:55:07;-21452.22;;;5.01;100.00
19890;BME280;10107;51.198;6.824;2023-02-11T03:59:10;-21452.22;;;5.01;100.00
19890;BME280;10107;51.198;6.824;2023-02-11T04:03:12;-21452.34;;;5.02;100.00
19890;BME280;10107;51.198;6.824;2023-02-11T04:07:14;-21452.50;;;5.02;100.00
19890;BME280;10107;51.198;6.824;2023-02-11T04:11:17;-21451.81;;;5.00;100.00
19890;BME280;10107;51.198;6.824;2023-02-11T04:15:18;-21451.28;;;4.97;100.00
19890;BME280;10107;51.198;6.824;2023-02-11T04:19:20;-21451.56;;;4.99;100.00
19890;BME280;10107;51.198;6.824;2023-02-11T04:23:22;-21451.56;;;4.99;100.00
19890;BME280;10107;51.198;6.824;2023-02-11T04:27:25;-21451.81;;;5.00;100.00
19890;BME280;10107;51.198;6.824;2023-02-11T04:31:26;-21452.09;;;5.01;100.00
19890;BME280;10107;51.198;6.824;2023-02-11T04:35:28;-21452.09;;;5.01;100.00
19890;BME280;10107;51.198;6.824;2023-02-11T04:39:30;-21451.16;;;4.97;100.00
19890;BME280;10107;51.198;6.824;2023-02-11T04:43:33;-21451.16;;;4.97;100.00
19890;BME280;10107;51.198;6.824;2023-02-11T04:47:35;-21451.44;;;4.98;100.00
19890;BME280;10107;51.198;6.824;2023-02-11T04:51:37;-21451.28;;;4.97;100.00
19890;BME280;10107;51.198;6.824;2023-02-11T04:55:38;-21451.16;;;4.97;100.00
19890;BME280;10107;51.198;6.824;2023-02-11T04:59:41;-21451.03;;;4.96;100.00
19890;BME280;10107;51.198;6.824;2023-02-11T05:03:43;-21452.09;;;5.01;100.00
19890;BME280;10107;51.198;6.824;2023-02-11T05:07:45;-21451.03;;;4.96;100.00
19890;BME280;10107;51.198;6.824;2023-02-11T05:11:47;-21450.63;;;4.95;100.00
19890;BME280;10107;51.198;6.824;2023-02-11T05:15:50;-21450.75;;;4.95;100.00
19890;BME280;10107;51.198;6.824;2023-02-11T05:19:52;-21450.22;;;4.93;100.00
19890;BME280;10107;51.198;6.824;2023-02-11T05:23:53;-21449.97;;;4.92;100.00
19890;BME280;10107;51.198;6.824;2023-02-11T05:27:55;-21449.69;;;4.91;100.00
19890;BME280;10107;51.198;6.824;2023-02-11T05:31:58;-21449.81;;;4.92;100.00
19890;BME280;10107;51.198;6.824;2023-02-11T05:36:01;-21449.69;;;4.91;100.00
19890;BME280;10107;51.198;6.824;2023-02-11T05:40:04;-21449.16;;;4.89;100.00
19890;BME280;10107;51.198;6.824;2023-02-11T05:44:06;-21449.41;;;4.90;100.00
19890;BME280;10107;51.198;6.824;2023-02-11T05:48:09;-21449.28;;;4.90;100.00
19890;BME280;10107;51.198;6.824;2023-02-11T05:52:11;-21448.88;;;4.88;100.00
19890;BME280;10107;51.198;6.824;2023-02-11T05:56:12;-21449.03;;;4.89;100.00
19890;BME280;10107;51.198;6.824;2023-02-11T06:00:15;-21448.34;;;4.86;100.00
19890;BME280;10107;51.198;6.824;2023-02-11T06:04:18;-21447.56;;;4.83;100.00
19890;BME280;10107;51.198;6.824;2023-02-11T06:08:19;-21446.75;;;4.80;100.00
19890;BME280;10107;51.198;6.824;2023-02-11T06:12:21;-21446.22;;;4.78;100.00
19890;BME280;10107;51.198;6.824;2023-02-11T06:16:23;-21445.69;;;4.76;100.00
19890;BME280;10107;51.198;6.824;2023-02-11T06:20:26;-21445.28;;;4.74;100.00
19890;BME280;10107;51.198;6.824;2023-02-11T06:24:28;-21444.47;;;4.71;100.00
19890;BME280;10107;51.198;6.824;2023-02-11T06:28:29;-21444.34;;;4.71;100.00
19890;BME280;10107;51.198;6.824;2023-02-11T06:32:31;-21443.94;;;4.69;100.00
19890;BME280;10107;51.198;6.824;2023-02-11T06:36:35;-21443.69;;;4.68;100.00
19890;BME280;10107;51.198;6.824;2023-02-11T06:40:38;-21443.94;;;4.69;100.00
19890;BME280;10107;51.198;6.824;2023-02-11T06:44:40;-21443.81;;;4.69;100.00
19890;BME280;10107;51.198;6.824;2023-02-11T06:48:42;-21444.06;;;4.70;100.00
19890;BME280;10107;51.198;6.824;2023-02-11T06:52:45;-21444.22;;;4.70;100.00
19890;BME280;10107;51.198;6.824;2023-02-11T06:56:47;-21444.88;;;4.73;100.00
19890;BME280;10107;51.198;6.824;2023-02-11T07:00:48;-21445.53;;;4.75;100.00
19890;BME280;10107;51.198;6.824;2023-02-11T07:04:51;-21445.28;;;4.74;100.00
19890;BME280;10107;51.198;6.824;2023-02-11T07:08:54;-21445.41;;;4.75;100.00
19890;BME280;10107;51.198;6.824;2023-02-11T07:12:56;-21445.94;;;4.77;100.00
19890;BME280;10107;51.198;6.824;2023-02-11T07:16:58;-21446.47;;;4.79;100.00
19890;BME280;10107;51.198;6.824;2023-02-11T07:21:03;-21447.00;;;4.81;100.00
19890;BME280;10107;51.198;6.824;2023-02-11T07:25:06;-21447.94;;;4.85;100.00
19890;BME280;10107;51.198;6.824;2023-02-11T07:29:08;-21448.34;;;4.86;100.00
19890;BME280;10107;51.198;6.824;2023-02-11T07:33:10;-21448.88;;;4.88;100.00
19890;BME280;10107;51.198;6.824;2023-02-11T07:37:11;-21449.69;;;4.91;100.00
19890;BME280;10107;51.198;6.824;2023-02-11T07:41:17;-21449.81;;;4.92;100.00
19890;BME280;10107;51.198;6.824;2023-02-11T07:45:19;-21450.34;;;4.94;100.00
19890;BME280;10107;51.198;6.824;2023-02-11T07:49:21;-21451.28;;;4.97;100.00
19890;BME280;10107;51.198;6.824;2023-02-11T07:53:23;-21451.69;;;4.99;100.00
19890;BME280;10107;51.198;6.824;2023-02-11T07:57:26;-21452.09;;;5.01;100.00
19890;BME280;10107;51.198;6.824;2023-02-11T08:01:28;-21452.63;;;5.03;100.00
19890;BME280;10107;51.198;6.824;2023-02-11T08:05:30;-21453.56;;;5.06;100.00
19890;BME280;10107;51.198;6.824;2023-02-11T08:09:32;-21453.81;;;5.07;100.00
19890;BME280;10107;51.198;6.824;2023-02-11T08:13:35;-21455.03;;;5.12;100.00
19890;BME280;10107;51.198;6.824;2023-02-11T08:17:37;-21455.84;;;5.15;100.00
19890;BME280;10107;51.198;6.824;2023-02-11T08:21:39;-21456.38;;;5.17;100.00
19890;BME280;10107;51.198;6.824;2023-02-11T08:25:41;-21456.91;;;5.19;100.00
19890;BME280;10107;51.198;6.824;2023-02-11T08:29:44;-21457.44;;;5.21;100.00
19890;BME280;10107;51.198;6.824;2023-02-11T08:33:45;-21457.97;;;5.23;100.00
19890;BME280;10107;51.198;6.824;2023-02-11T08:37:47;-21459.03;;;5.27;100.00
19890;BME280;10107;51.198;6.824;2023-02-11T08:41:56;-21459.97;;;5.31;100.00
19890;BME280;10107;51.198;6.824;2023-02-11T08:46:01;-21460.63;;;5.33;100.00
19890;BME280;10107;51.198;6.824;2023-02-11T08:50:04;-21461.56;;;5.37;100.00
19890;BME280;10107;51.198;6.824;2023-02-11T08:54:06;-21462.78;;;5.42;100.00
19890;BME280;10107;51.198;6.824;2023-02-11T08:58:09;-21464.50;;;5.48;100.00
19890;BME280;10107;51.198;6.824;2023-02-11T09:02:12;-21466.09;;;5.54;100.00
19890;BME280;10107;51.198;6.824;2023-02-11T09:06:14;-21467.03;;;5.58;100.00
19890;BME280;10107;51.198;6.824;2023-02-11T09:10:18;-21467.97;;;5.62;100.00
19890;BME280;10107;51.198;6.824;2023-02-11T09:14:21;-21470.25;;;5.70;100.00
19890;BME280;10107;51.198;6.824;2023-02-11T09:18:25;-21472.13;;;5.78;100.00
19890;BME280;10107;51.198;6.824;2023-02-11T09:22:27;-21474.25;;;5.86;100.00
19890;BME280;10107;51.198;6.824;2023-02-11T09:26:31;-21475.59;;;5.91;100.00
19890;BME280;10107;51.198;6.824;2023-02-11T09:30:34;-21476.53;;;5.94;100.00
19890;BME280;10107;51.198;6.824;2023-02-11T09:34:37;-21475.84;;;5.92;100.00
19890;BME280;10107;51.198;6.824;2023-02-11T09:38:39;-21476.66;;;5.95;100.00
19890;BME280;10107;51.198;6.824;2023-02-11T09:42:45;-21477.84;;;6.00;100.00
19890;BME280;10107;51.198;6.824;2023-02-11T09:46:53;-21479.72;;;6.07;100.00
19890;BME280;10107;51.198;6.824;2023-02-11T09:50:59;-21482.00;;;6.15;100.00
19890;BME280;10107;51.198;6.824;2023-02-11T09:55:03;-21484.13;;;6.24;100.00
19890;BME280;10107;51.198;6.824;2023-02-11T09:59:09;-21483.31;;;6.21;100.00
19890;BME280;10107;51.198;6.824;2023-02-11T10:03:46;-21484.53;;;6.25;100.00
19890;BME280;10107;51.198;6.824;2023-02-11T10:08:01;-21484.00;;;6.23;100.00
19890;BME280;10107;51.198;6.824;2023-02-11T10:12:25;-21483.84;;;6.23;100.00
19890;BME280;10107;51.198;6.824;2023-02-11T10:16:41;-21484.53;;;6.25;100.00
19890;BME280;10107;51.198;6.824;2023-02-11T10:20:50;-21485.19;;;6.28;100.00
19890;BME280;10107;51.198;6.824;2023-02-11T10:24:57;-21486.25;;;6.32;100.00
19890;BME280;10107;51.198;6.824;2023-02-11T10:29:05;-21486.53;;;6.33;100.00
19890;BME280;10107;51.198;6.824;2023-02-11T10:33:15;-21486.25;;;6.32;100.00
19890;BME280;10107;51.198;6.824;2023-02-11T10:37:17;-21486.41;;;6.32;100.00
19890;BME280;10107;51.198;6.824;2023-02-11T10:41:26;-21486.13;;;6.31;100.00
19890;BME280;10107;51.198;6.824;2023-02-11T10:45:32;-21486.13;;;6.31;100.00
19890;BME280;10107;51.198;6.824;2023-02-11T10:49:37;-21486.00;;;6.31;100.00
19890;BME280;10107;51.198;6.824;2023-02-11T10:53:39;-21486.53;;;6.33;100.00
19890;BME280;10107;51.198;6.824;2023-02-11T10:57:51;-21485.72;;;6.30;100.00
19890;BME280;10107;51.198;6.824;2023-02-11T11:01:55;-21485.19;;;6.28;100.00
19890;BME280;10107;51.198;6.824;2023-02-11T11:06:00;-21485.72;;;6.30;100.00
19890;BME280;10107;51.198;6.824;2023-02-11T11:10:04;-21487.59;;;6.37;100.00
19890;BME280;10107;51.198;6.824;2023-02-11T11:14:17;-21488.53;;;6.41;100.00
19890;BME280;10107;51.198;6.824;2023-02-11T11:18:20;-21489.72;;;6.45;100.00
19890;BME280;10107;51.198;6.824;2023-02-11T11:22:22;-21490.41;;;6.48;100.00
19890;BME280;10107;51.198;6.824;2023-02-11T11:26:25;-21490.66;;;6.49;100.00
19890;BME280;10107;51.198;6.824;2023-02-11T11:30:37;-21490.25;;;6.47;100.00
19890;BME280;10107;51.198;6.824;2023-02-11T11:34:41;-21490.00;;;6.46;100.00
19890;BME280;10107;51.198;6.824;2023-02-11T11:38:48;-21489.31;;;6.44;100.00
19890;BME280;10107;51.198;6.824;2023-02-11T11:43:08;-21490.25;;;6.47;100.00
19890;BME280;10107;51.198;6.824;2023-02-11T11:47:24;-21492.00;;;6.54;100.00
19890;BME280;10107;51.198;6.824;2023-02-11T11:51:31;-21493.59;;;6.60;100.00
19890;BME280;10107;51.198;6.824;2023-02-11T11:55:37;-21493.06;;;6.58;100.00
19890;BME280;10107;51.198;6.824;2023-02-11T11:59:41;-21494.25;;;6.63;100.00
19890;BME280;10107;51.198;6.824;2023-02-11T12:04:09;-21494.66;;;6.64;100.00
19890;BME280;10107;51.198;6.824;2023-02-11T12:08:20;-21495.31;;;6.67;100.00
19890;BME280;10107;51.198;6.824;2023-02-11T12:12:35;-21496.66;;;6.72;100.00
19890;BME280;10107;51.198;6.824;2023-02-11T12:16:49;-21499.47;;;6.83;100.00
19890;BME280;10107;51.198;6.824;2023-02-11T12:21:08;-21500.66;;;6.87;100.00
19890;BME280;10107;51.198;6.824;2023-02-11T12:25:24;-21501.06;;;6.89;100.00
19890;BME280;10107;51.198;6.824;2023-02-11T12:29:31;-21500.38;;;6.86;100.00
19890;BME280;10107;51.198;6.824;2023-02-11T12:33:50;-21500.53;;;6.87;100.00
19890;BME280;10107;51.198;6.824;2023-02-11T12:38:25;-21502.78;;;6.96;100.00
19890;BME280;10107;51.198;6.824;2023-02-11T12:42:37;-21505.97;;;7.08;100.00
19890;BME280;10107;51.198;6.824;2023-02-11T12:47:11;-21507.97;;;7.16;100.00
19890;BME280;10107;51.198;6.824;2023-02-11T12:51:22;-21508.38;;;7.17;100.00
19890;BME280;10107;51.198;6.824;2023-02-11T12:55:36;-21507.84;;;7.15;100.00
19890;BME280;10107;51.198;6.824;2023-02-11T12:59:47;-21508.50;;;7.18;100.00
19890;BME280;10107;51.198;6.824;2023-02-11T13:03:53;-21509.31;;;7.21;100.00
19890;BME280;10107;51.198;6.824;2023-02-11T13:08:01;-21512.38;;;7.32;100.00
19890;BME280;10107;51.198;6.824;2023-02-11T13:12:06;-21514.38;;;7.40;100.00
19890;BME280;10107;51.198;6.824;2023-02-11T13:16:32;-21515.69;;;7.45;100.00
19890;BME280;10107;51.198;6.824;2023-02-11T13:20:41;-21517.84;;;7.53;100.00
19890;BME280;10107;51.198;6.824;2023-02-11T13:24:47;-21522.09;;;7.70;100.00
19890;BME280;10107;51.198;6.824;2023-02-11T13:28:55;-21522.22;;;7.70;100.00
19890;BME280;10107;51.198;6.824;2023-02-11T13:37:22;-21525.16;;;7.82;100.00
19890;BME280;10107;51.198;6.824;2023-02-11T13:41:28;-21526.34;;;7.86;100.00
19890;BME280;10107;51.198;6.824;2023-02-11T13:45:37;-21526.06;;;7.85;100.00
19890;BME280;10107;51.198;6.824;2023-02-11T13:49:48;-21530.34;;;8.02;100.00
19890;BME280;10107;51.198;6.824;2023-02-11T13:53:53;-21536.44;;;8.25;100.00
19890;BME280;10107;51.198;6.824;2023-02-11T13:58:17;-21537.91;;;8.31;100.00
19890;BME280;10107;51.198;6.824;2023-02-11T14:02:24;-21537.38;;;8.29;100.00
19890;BME280;10107;51.198;6.824;2023-02-11T14:07:20;-21537.13;;;8.28;100.00
19890;BME280;10107;51.198;6.824;2023-02-11T14:11:48;-21536.19;;;8.24;100.00
19890;BME280;10107;51.198;6.824;2023-02-11T14:16:04;-21536.59;;;8.26;100.00
19890;BME280;10107;51.198;6.824;2023-02-11T14:20:32;-21536.59;;;8.26;100.00
19890;BME280;10107;51.198;6.824;2023-02-11T14:24:56;-21534.06;;;8.16;100.00
19890;BME280;10107;51.198;6.824;2023-02-11T14:29:02;-21533.91;;;8.16;100.00
19890;BME280;10107;51.198;6.824;2023-02-11T14:33:45;-21533.38;;;8.13;100.00
19890;BME280;10107;51.198;6.824;2023-02-11T14:37:57;-21532.84;;;8.11;100.00
19890;BME280;10107;51.198;6.824;2023-02-11T14:42:02;-21532.47;;;8.10;100.00
19890;BME280;10107;51.198;6.824;2023-02-11T14:46:04;-21533.13;;;8.12;100.00
19890;BME280;10107;51.198;6.824;2023-02-11T14:50:14;-21533.91;;;8.16;100.00
19890;BME280;10107;51.198;6.824;2023-02-11T14:54:21;-21533.13;;;8.12;100.00
19890;BME280;10107;51.198;6.824;2023-02-11T14:58:26;-21531.66;;;8.07;100.00
19890;BME280;10107;51.198;6.824;2023-02-11T15:02:32;-21529.81;;;8.00;100.00
19890;BME280;10107;51.198;6.824;2023-02-11T15:06:36;-21527.94;;;7.92;100.00
19890;BME280;10107;51.198;6.824;2023-02-11T15:10:42;-21527.00;;;7.89;100.00
19890;BME280;10107;51.198;6.824;2023-02-11T15:14:46;-21525.69;;;7.84;100.00
19890;BME280;10107;51.198;6.824;2023-02-11T15:18:51;-21525.69;;;7.84;100.00
19890;BME280;10107;51.198;6.824;2023-02-11T15:22:55;-21524.47;;;7.79;100.00
19890;BME280;10107;51.198;6.824;2023-02-11T15:27:01;-21522.09;;;7.70;100.00
19890;BME280;10107;51.198;6.824;2023-02-11T15:31:05;-21521.16;;;7.66;100.00
19890;BME280;10107;51.198;6.824;2023-02-11T15:35:13;-21518.75;;;7.57;100.00
19890;BME280;10107;51.198;6.824;2023-02-11T15:39:18;-21516.91;;;7.50;100.00
19890;BME280;10107;51.198;6.824;2023-02-11T15:43:21;-21515.16;;;7.43;100.00
19890;BME280;10107;51.198;6.824;2023-02-11T15:47:23;-21514.63;;;7.41;100.00
19890;BME280;10107;51.198;6.824;2023-02-11T15:51:27;-21515.56;;;7.45;100.00
19890;BME280;10107;51.198;6.824;2023-02-11T15:55:31;-21516.09;;;7.47;100.00
19890;BME280;10107;51.198;6.824;2023-02-11T15:59:37;-21515.31;;;7.44;100.00
19890;BME280;10107;51.198;6.824;2023-02-11T16:03:40;-21514.22;;;7.40;100.00
19890;BME280;10107;51.198;6.824;2023-02-11T16:07:45;-21512.38;;;7.32;100.00
19890;BME280;10107;51.198;6.824;2023-02-11T16:11:54;-21511.16;;;7.28;100.00
19890;BME280;10107;51.198;6.824;2023-02-11T16:16:00;-21509.03;;;7.20;100.00
19890;BME280;10107;51.198;6.824;2023-02-11T16:20:05;-21508.09;;;7.16;100.00
19890;BME280;10107;51.198;6.824;2023-02-11T16:24:07;-21506.25;;;7.09;100.00
19890;BME280;10107;51.198;6.824;2023-02-11T16:28:18;-21504.78;;;7.03;100.00
19890;BME280;10107;51.198;6.824;2023-02-11T16:32:23;-21503.84;;;7.00;100.00
19890;BME280;10107;51.198;6.824;2023-02-11T16:36:25;-21502.38;;;6.94;100.00
19890;BME280;10107;51.198;6.824;2023-02-11T16:40:27;-21500.53;;;6.87;100.00
19890;BME280;10107;51.198;6.824;2023-02-11T16:44:29;-21499.19;;;6.82;100.00
19890;BME280;10107;51.198;6.824;2023-02-11T16:48:32;-21498.25;;;6.78;100.00
19890;BME280;10107;51.198;6.824;2023-02-11T16:52:34;-21497.31;;;6.74;100.00
19890;BME280;10107;51.198;6.824;2023-02-11T16:56:36;-21497.06;;;6.73;100.00
19890;BME280;10107;51.198;6.824;2023-02-11T17:00:38;-21496.38;;;6.71;100.00
19890;BME280;10107;51.198;6.824;2023-02-11T17:04:41;-21496.13;;;6.70;100.00
19890;BME280;10107;51.198;6.824;2023-02-11T17:08:43;-21496.13;;;6.70;100.00
19890;BME280;10107;51.198;6.824;2023-02-11T17:12:45;-21495.47;;;6.67;100.00
19890;BME280;10107;51.198;6.824;2023-02-11T17:16:47;-21495.19;;;6.66;100.00
19890;BME280;10107;51.198;6.824;2023-02-11T17:20:50;-21495.59;;;6.68;100.00
19890;BME280;10107;51.198;6.824;2023-02-11T17:24:52;-21495.19;;;6.66;100.00
19890;BME280;10107;51.198;6.824;2023-02-11T17:28:55;-21494.94;;;6.65;100.00
19890;BME280;10107;51.198;6.824;2023-02-11T17:32:56;-21494.00;;;6.62;100.00
19890;BME280;10107;51.198;6.824;2023-02-11T17:36:59;-21493.72;;;6.61;100.00
19890;BME280;10107;51.198;6.824;2023-02-11T17:41:08;-21493.72;;;6.61;100.00
19890;BME280;10107;51.198;6.824;2023-02-11T17:45:09;-21493.31;;;6.59;100.00
19890;BME280;10107;51.198;6.824;2023-02-11T17:49:13;-21492.78;;;6.57;100.00
19890;BME280;10107;51.198;6.824;2023-02-11T17:53:16;-21491.84;;;6.53;100.00
19890;BME280;10107;51.198;6.824;2023-02-11T17:57:18;-21492.41;;;6.56;100.00
19890;BME280;10107;51.198;6.824;2023-02-11T18:01:19;-21492.25;;;6.55;100.00
19890;BME280;10107;51.198;6.824;2023-02-11T18:05:21;-21492.25;;;6.55;100.00
19890;BME280;10107;51.198;6.824;2023-02-11T18:09:26;-21491.59;;;6.52;100.00
19890;BME280;10107;51.198;6.824;2023-02-11T18:13:28;-21491.84;;;6.53;100.00
19890;BME280;10107;51.198;6.824;2023-02-11T18:17:29;-21491.19;;;6.51;100.00
19890;BME280;10107;51.198;6.824;2023-02-11T18:21:31;-21491.31;;;6.51;100.00
19890;BME280;10107;51.198;6.824;2023-02-11T18:25:34;-21491.31;;;6.51;100.00
19890;BME280;10107;51.198;6.824;2023-02-11T18:29:36;-21491.31;;;6.51;100.00
19890;BME280;10107;51.198;6.824;2023-02-11T18:33:39;-21490.66;;;6.49;100.00
19890;BME280;10107;51.198;6.824;2023-02-11T18:37:41;-21491.19;;;6.51;100.00
19890;BME280;10107;51.198;6.824;2023-02-11T18:41:45;-21491.06;;;6.50;100.00
19890;BME280;10107;51.198;6.824;2023-02-11T18:45:48;-21491.06;;;6.50;100.00
19890;BME280;10107;51.198;6.824;2023-02-11T18:49:50;-21491.31;;;6.51;100.00
19890;BME280;10107;51.198;6.824;2023-02-11T18:53:52;-21491.31;;;6.51;100.00
19890;BME280;10107;51.198;6.824;2023-02-11T18:57:55;-21491.47;;;6.52;100.00
19890;BME280;10107;51.198;6.824;2023-02-11T19:01:57;-21491.19;;;6.51;100.00
19890;BME280;10107;51.198;6.824;2023-02-11T19:05:58;-21491.31;;;6.51;100.00
19890;BME280;10107;51.198;6.824;2023-02-11T19:10:00;-21491.31;;;6.51;100.00
19890;BME280;10107;51.198;6.824;2023-02-11T19:14:04;-21491.47;;;6.52;100.00
19890;BME280;10107;51.198;6.824;2023-02-11T19:18:09;-21491.19;;;6.51;100.00
19890;BME280;10107;51.198;6.824;2023-02-11T19:22:11;-21491.31;;;6.51;100.00
19890;BME280;10107;51.198;6.824;2023-02-11T19:26:13;-21491.72;;;6.53;100.00
19890;BME280;10107;51.198;6.824;2023-02-11T19:30:16;-21491.72;;;6.53;100.00
19890;BME280;10107;51.198;6.824;2023-02-11T19:34:19;-21492.13;;;6.54;100.00
19890;BME280;10107;51.198;6.824;2023-02-11T19:38:21;-21492.13;;;6.54;100.00
19890;BME280;10107;51.198;6.824;2023-02-11T19:42:22;-21492.25;;;6.55;100.00
19890;BME280;10107;51.198;6.824;2023-02-11T19:46:28;-21492.00;;;6.54;100.00
19890;BME280;10107;51.198;6.824;2023-02-11T19:50:30;-21492.13;;;6.54;100.00
19890;BME280;10107;51.198;6.824;2023-02-11T19:54:32;-21491.84;;;6.53;100.00
19890;BME280;10107;51.198;6.824;2023-02-11T19:58:35;-21491.47;;;6.52;100.00
19890;BME280;10107;51.198;6.824;2023-02-11T20:02:38;-21491.72;;;6.53;100.00
19890;BME280;10107;51.198;6.824;2023-02-11T20:06:40;-21492.13;;;6.54;100.00
19890;BME280;10107;51.198;6.824;2023-02-11T20:10:42;-21490.94;;;6.50;100.00
19890;BME280;10107;51.198;6.824;2023-02-11T20:14:43;-21491.31;;;6.51;100.00
19890;BME280;10107;51.198;6.824;2023-02-11T20:18:48;-21491.19;;;6.51;100.00
19890;BME280;10107;51.198;6.824;2023-02-11T20:22:50;-21491.59;;;6.52;100.00
19890;BME280;10107;51.198;6.824;2023-02-11T20:26:52;-21491.59;;;6.52;100.00
19890;BME280;10107;51.198;6.824;2023-02-11T20:30:56;-21492.00;;;6.54;100.00
19890;BME280;10107;51.198;6.824;2023-02-11T20:34:59;-21491.72;;;6.53;100.00
19890;BME280;10107;51.198;6.824;2023-02-11T20:39:02;-21492.41;;;6.56;100.00
19890;BME280;10107;51.198;6.824;2023-02-11T20:43:04;-21492.13;;;6.54;100.00
19890;BME280;10107;51.198;6.824;2023-02-11T20:47:06;-21492.00;;;6.54;100.00
19890;BME280;10107;51.198;6.824;2023-02-11T20:51:11;-21492.13;;;6.54;100.00
19890;BME280;10107;51.198;6.824;2023-02-11T20:55:13;-21492.00;;;6.54;100.00
19890;BME280;10107;51.198;6.824;2023-02-11T20:59:16;-21491.47;;;6.52;100.00
19890;BME280;10107;51.198;6.824;2023-02-11T21:03:18;-21490.66;;;6.49;100.00
19890;BME280;10107;51.198;6.824;2023-02-11T21:07:21;-21490.53;;;6.48;100.00
19890;BME280;10107;51.198;6.824;2023-02-11T21:11:22;-21490.94;;;6.50;100.00
19890;BME280;10107;51.198;6.824;2023-02-11T21:15:24;-21490.53;;;6.48;100.00
19890;BME280;10107;51.198;6.824;2023-02-11T21:19:26;-21490.41;;;6.48;100.00
19890;BME280;10107;51.198;6.824;2023-02-11T21:23:29;-21489.84;;;6.46;100.00
19890;BME280;10107;51.198;6.824;2023-02-11T21:27:31;-21489.31;;;6.44;100.00
19890;BME280;10107;51.198;6.824;2023-02-11T21:31:34;-21489.19;;;6.43;100.00
19890;BME280;10107;51.198;6.824;2023-02-11T21:35:36;-21488.78;;;6.42;100.00